createdAt,value
2019-04-27T00:00:09.573Z,0.00
2019-04-27T00:01:10.602Z,0.00
2019-04-27T00:02:09.518Z,0.00
2019-04-27T00:03:09.524Z,0.00
2019-04-27T00:04:11.759Z,0.00
2019-04-27T00:05:09.479Z,0.00
2019-04-27T00:06:09.472Z,0.00
2019-04-27T00:07:09.469Z,0.00
2019-04-27T00:08:09.471Z,0.00
2019-04-27T00:09:11.622Z,0.00
2019-04-27T00:10:09.463Z,0.00
2019-04-27T00:11:09.424Z,0.00
2019-04-27T00:12:09.409Z,0.00
2019-04-27T00:13:09.419Z,0.00
2019-04-27T00:14:10.328Z,0.00
2019-04-27T00:15:09.372Z,0.00
2019-04-27T00:16:10.061Z,0.00
2019-04-27T00:17:09.356Z,0.00
2019-04-27T00:18:13.421Z,0.00
2019-04-27T00:19:09.340Z,0.00
2019-04-27T00:20:09.318Z,0.00
2019-04-27T00:21:09.327Z,0.00
2019-04-27T00:22:09.312Z,0.00
2019-04-27T00:23:09.328Z,0.00
2019-04-27T00:24:09.273Z,0.00
2019-04-27T00:25:09.271Z,0.00
2019-04-27T00:26:09.262Z,0.00
2019-04-27T00:27:09.249Z,0.00
2019-04-27T00:28:09.249Z,0.00
2019-04-27T00:29:09.373Z,0.00
2019-04-27T00:30:09.221Z,0.00
2019-04-27T00:31:09.206Z,0.00
2019-04-27T00:32:09.190Z,0.00
2019-04-27T00:33:09.193Z,0.00
2019-04-27T00:34:09.175Z,0.00
2019-04-27T00:35:09.158Z,0.00
2019-04-27T00:36:09.151Z,0.00
2019-04-27T00:37:09.140Z,0.00
2019-04-27T00:38:09.146Z,0.00
2019-04-27T00:39:09.131Z,0.00
2019-04-27T00:40:09.103Z,0.00
2019-04-27T00:41:09.089Z,0.00
2019-04-27T00:42:09.082Z,0.00
2019-04-27T00:43:09.079Z,0.00
2019-04-27T00:44:09.078Z,0.00
2019-04-27T00:45:09.053Z,0.00
2019-04-27T00:46:09.044Z,0.00
2019-04-27T00:47:09.035Z,0.00
2019-04-27T00:48:09.013Z,0.00
2019-04-27T00:49:09.025Z,0.00
2019-04-27T00:50:08.987Z,0.00
2019-04-27T00:51:08.971Z,0.00
2019-04-27T00:52:09.009Z,0.00
2019-04-27T00:53:08.951Z,0.00
2019-04-27T00:54:08.961Z,0.00
2019-04-27T00:55:08.940Z,0.00
2019-04-27T00:56:08.921Z,0.00
2019-04-27T00:57:08.915Z,0.00
2019-04-27T00:58:08.902Z,0.00
2019-04-27T00:59:08.908Z,0.00
2019-04-27T01:00:08.885Z,0.00
2019-04-27T01:01:08.873Z,0.00
2019-04-27T01:02:08.850Z,0.00
2019-04-27T01:04:18.052Z,0.00
2019-04-27T01:05:19.026Z,0.00
2019-04-27T01:06:19.017Z,0.00
2019-04-27T01:07:19.003Z,0.00
2019-04-27T01:08:19.008Z,0.00
2019-04-27T01:09:19.001Z,0.00
2019-04-27T01:10:18.992Z,0.00
2019-04-27T01:11:18.972Z,0.00
2019-04-27T01:12:18.955Z,0.00
2019-04-27T01:13:18.948Z,0.00
2019-04-27T01:14:18.954Z,0.00
2019-04-27T01:15:18.927Z,0.00
2019-04-27T01:16:22.016Z,0.00
2019-04-27T01:17:18.996Z,0.00
2019-04-27T01:18:19.480Z,0.00
2019-04-27T01:19:19.105Z,0.00
2019-04-27T01:20:18.857Z,0.00
2019-04-27T01:21:19.414Z,0.00
2019-04-27T01:22:18.949Z,0.00
2019-04-27T01:23:19.315Z,0.00
2019-04-27T01:24:19.056Z,0.00
2019-04-27T01:25:19.012Z,0.00
2019-04-27T01:26:18.802Z,0.00
2019-04-27T01:27:19.026Z,0.00
2019-04-27T01:28:20.672Z,0.00
2019-04-27T01:29:19.284Z,0.00
2019-04-27T01:30:18.922Z,0.00
2019-04-27T01:31:19.292Z,0.00
2019-04-27T01:32:20.729Z,0.00
2019-04-27T01:33:19.819Z,0.00
2019-04-27T01:34:19.249Z,0.00
2019-04-27T01:35:18.798Z,0.00
2019-04-27T01:36:19.088Z,0.00
2019-04-27T01:37:19.581Z,0.00
2019-04-27T01:38:19.212Z,0.00
2019-04-27T01:39:18.982Z,0.00
2019-04-27T01:40:19.358Z,0.00
2019-04-27T01:41:19.128Z,0.00
2019-04-27T01:42:19.282Z,0.00
2019-04-27T01:43:18.751Z,0.00
2019-04-27T01:44:19.428Z,0.00
2019-04-27T01:45:18.756Z,0.00
2019-04-27T01:46:19.569Z,0.00
2019-04-27T01:47:18.784Z,0.00
2019-04-27T01:48:23.612Z,0.00
2019-04-27T01:49:19.391Z,0.00
2019-04-27T01:50:18.922Z,0.00
2019-04-27T01:51:20.805Z,0.00
2019-04-27T01:52:19.382Z,0.00
2019-04-27T01:53:19.048Z,0.00
2019-04-27T01:54:19.363Z,0.00
2019-04-27T01:55:18.904Z,0.00
2019-04-27T01:56:19.481Z,0.00
2019-04-27T01:57:19.414Z,0.00
2019-04-27T01:58:20.221Z,0.00
2019-04-27T01:59:19.945Z,0.00
2019-04-27T02:00:19.332Z,0.00
2019-04-27T02:01:18.764Z,0.00
2019-04-27T02:02:19.096Z,0.00
2019-04-27T02:03:19.790Z,0.00
2019-04-27T02:04:19.429Z,0.00
2019-04-27T02:05:19.028Z,0.00
2019-04-27T02:06:19.049Z,0.00
2019-04-27T02:07:19.169Z,0.00
2019-04-27T02:08:19.607Z,0.00
2019-04-27T02:09:18.772Z,0.00
2019-04-27T02:10:19.256Z,0.00
2019-04-27T02:11:18.618Z,0.00
2019-04-27T02:12:19.177Z,0.00
2019-04-27T02:13:18.869Z,0.00
2019-04-27T02:14:19.582Z,0.00
2019-04-27T02:15:19.179Z,0.00
2019-04-27T02:16:18.862Z,0.00
2019-04-27T02:17:18.809Z,0.00
2019-04-27T02:18:19.457Z,0.00
2019-04-27T02:19:19.338Z,0.00
2019-04-27T02:20:19.741Z,0.00
2019-04-27T02:21:19.287Z,0.00
2019-04-27T02:22:18.677Z,0.00
2019-04-27T02:23:19.243Z,0.00
2019-04-27T02:24:18.636Z,0.00
2019-04-27T02:25:18.957Z,0.00
2019-04-27T02:26:19.236Z,0.00
2019-04-27T02:27:18.696Z,0.00
2019-04-27T02:28:19.489Z,0.00
2019-04-27T02:29:18.882Z,0.00
2019-04-27T02:30:20.472Z,0.00
2019-04-27T02:31:19.325Z,0.00
2019-04-27T02:32:20.147Z,0.00
2019-04-27T02:33:20.220Z,0.00
2019-04-27T02:34:19.983Z,0.00
2019-04-27T02:35:19.312Z,0.00
2019-04-27T02:36:20.229Z,0.00
2019-04-27T02:37:20.011Z,0.00
2019-04-27T02:38:20.108Z,0.00
2019-04-27T02:39:19.758Z,0.00
2019-04-27T02:40:20.234Z,0.00
2019-04-27T02:41:19.857Z,0.00
2019-04-27T02:42:20.030Z,0.00
2019-04-27T02:43:19.421Z,0.00
2019-04-27T02:44:19.993Z,0.00
2019-04-27T02:45:19.585Z,0.00
2019-04-27T02:46:20.031Z,0.00
2019-04-27T02:47:20.486Z,0.00
2019-04-27T02:48:19.946Z,0.00
2019-04-27T02:49:20.025Z,0.00
2019-04-27T02:50:19.316Z,0.00
2019-04-27T02:51:20.193Z,0.00
2019-04-27T02:52:19.865Z,0.00
2019-04-27T02:53:19.640Z,0.00
2019-04-27T02:54:20.233Z,0.00
2019-04-27T02:55:19.799Z,0.00
2019-04-27T02:56:20.007Z,0.00
2019-04-27T02:57:19.860Z,0.00
2019-04-27T02:58:21.242Z,0.00
2019-04-27T02:59:19.857Z,0.00
2019-04-27T03:00:17.756Z,0.00
2019-04-27T03:01:19.867Z,0.00
2019-04-27T03:02:19.659Z,0.00
2019-04-27T03:03:20.105Z,0.00
2019-04-27T03:05:39.841Z,0.00
2019-04-27T03:06:39.924Z,0.00
2019-04-27T03:07:39.906Z,0.00
2019-04-27T03:08:39.425Z,0.00
2019-04-27T03:09:39.532Z,0.00
2019-04-27T03:10:40.133Z,0.00
2019-04-27T03:11:39.566Z,0.00
2019-04-27T03:12:39.893Z,0.00
2019-04-27T03:13:40.489Z,0.00
2019-04-27T03:14:40.453Z,0.00
2019-04-27T03:15:40.360Z,0.00
2019-04-27T03:16:39.461Z,0.00
2019-04-27T03:17:39.613Z,0.00
2019-04-27T03:18:40.345Z,0.00
2019-04-27T03:19:39.782Z,0.00
2019-04-27T03:20:40.254Z,0.00
2019-04-27T03:21:39.594Z,0.00
2019-04-27T03:22:39.853Z,0.00
2019-04-27T03:23:41.028Z,0.00
2019-04-27T03:24:39.448Z,0.00
2019-04-27T03:25:40.142Z,0.00
2019-04-27T03:26:38.985Z,0.00
2019-04-27T03:27:40.553Z,0.00
2019-04-27T03:28:40.131Z,0.00
2019-04-27T03:29:38.959Z,0.00
2019-04-27T03:30:42.482Z,0.00
2019-04-27T03:31:42.571Z,0.00
2019-04-27T03:32:42.541Z,4.00
2019-04-27T03:33:42.630Z,4.00
2019-04-27T03:34:41.792Z,4.00
2019-04-27T03:35:42.691Z,0.00
2019-04-27T03:36:39.563Z,4.00
2019-04-27T03:37:40.382Z,4.00
2019-04-27T03:38:39.728Z,8.00
2019-04-27T03:39:39.751Z,4.00
2019-04-27T03:40:40.288Z,8.00
2019-04-27T03:41:40.986Z,8.00
2019-04-27T03:42:40.298Z,8.00
2019-04-27T03:43:40.192Z,12.00
2019-04-27T03:44:39.808Z,16.00
2019-04-27T03:45:39.965Z,12.00
2019-04-27T03:46:39.729Z,16.00
2019-04-27T03:47:40.699Z,20.00
2019-04-27T03:48:40.715Z,24.00
2019-04-27T03:49:41.524Z,28.00
2019-04-27T03:50:39.854Z,32.00
2019-04-27T03:51:40.190Z,36.00
2019-04-27T03:52:39.710Z,40.00
2019-04-27T03:53:39.628Z,48.00
2019-04-27T03:54:40.095Z,56.00
2019-04-27T03:55:39.766Z,64.00
2019-04-27T03:56:39.573Z,72.00
2019-04-27T03:57:40.271Z,80.00
2019-04-27T03:58:39.578Z,92.00
2019-04-27T03:59:40.522Z,100.00
2019-04-27T04:00:39.835Z,112.00
2019-04-27T04:01:39.607Z,128.00
2019-04-27T04:02:40.549Z,140.00
2019-04-27T04:03:39.313Z,156.00
2019-04-27T04:04:40.567Z,172.00
2019-04-27T04:05:39.801Z,188.00
2019-04-27T04:06:39.911Z,208.00
2019-04-27T04:07:40.246Z,228.00
2019-04-27T04:08:39.680Z,248.00
2019-04-27T04:09:40.175Z,268.00
2019-04-27T04:10:39.243Z,288.00
2019-04-27T04:11:39.559Z,312.00
2019-04-27T04:12:40.020Z,336.00
2019-04-27T04:13:39.633Z,364.00
2019-04-27T04:14:42.425Z,392.00
2019-04-27T04:15:39.835Z,420.00
2019-04-27T04:16:39.492Z,452.00
2019-04-27T04:17:40.327Z,484.00
2019-04-27T04:18:39.657Z,520.00
2019-04-27T04:19:51.181Z,556.00
2019-04-27T04:20:40.369Z,600.00
2019-04-27T04:21:40.005Z,640.00
2019-04-27T04:22:40.126Z,680.00
2019-04-27T04:23:40.145Z,724.00
2019-04-27T04:24:39.724Z,764.00
2019-04-27T04:25:40.672Z,796.00
2019-04-27T04:26:40.214Z,836.00
2019-04-27T04:27:40.126Z,876.00
2019-04-27T04:28:39.638Z,916.00
2019-04-27T04:29:39.450Z,948.00
2019-04-27T04:30:40.267Z,980.00
2019-04-27T04:31:40.547Z,1016.00
2019-04-27T04:32:39.480Z,1060.00
2019-04-27T04:33:40.152Z,1100.00
2019-04-27T04:34:39.885Z,1148.00
2019-04-27T04:35:39.766Z,1196.00
2019-04-27T04:36:39.401Z,1240.00
2019-04-27T04:37:39.419Z,1284.00
2019-04-27T04:38:40.099Z,1328.00
2019-04-27T04:39:40.296Z,1372.00
2019-04-27T04:40:39.970Z,1416.00
2019-04-27T04:41:43.181Z,1456.00
2019-04-27T04:42:39.222Z,1500.00
2019-04-27T04:43:39.715Z,1540.00
2019-04-27T04:44:39.954Z,1584.00
2019-04-27T04:45:39.342Z,1624.00
2019-04-27T04:46:39.906Z,1664.00
2019-04-27T04:47:40.509Z,1700.00
2019-04-27T04:48:40.229Z,1736.00
2019-04-27T04:49:39.761Z,1772.00
2019-04-27T04:50:39.774Z,1808.00
2019-04-27T04:51:40.006Z,1844.00
2019-04-27T04:52:39.673Z,1880.00
2019-04-27T04:53:37.683Z,1916.00
2019-04-27T04:54:37.657Z,1948.00
2019-04-27T04:55:39.185Z,1984.00
2019-04-27T04:56:39.289Z,2028.00
2019-04-27T04:57:39.822Z,2060.00
2019-04-27T04:58:39.244Z,2092.00
2019-04-27T04:59:39.020Z,2124.00
2019-04-27T05:00:39.882Z,2156.00
2019-04-27T05:01:39.899Z,2192.00
2019-04-27T05:02:39.526Z,2228.00
2019-04-27T05:03:38.865Z,2256.00
2019-04-27T05:04:39.060Z,2296.00
2019-04-27T05:06:46.738Z,2368.00
2019-04-27T05:07:48.623Z,2400.00
2019-04-27T05:08:49.282Z,2432.00
2019-04-27T05:09:48.564Z,2464.00
2019-04-27T05:10:49.465Z,2496.00
2019-04-27T05:11:48.664Z,2528.00
2019-04-27T05:12:48.577Z,2560.00
2019-04-27T05:13:49.306Z,2736.00
2019-04-27T05:14:48.935Z,3788.00
2019-04-27T05:15:48.701Z,5016.00
2019-04-27T05:16:48.908Z,5768.00
2019-04-27T05:17:48.385Z,6036.00
2019-04-27T05:18:49.412Z,6292.00
2019-04-27T05:19:49.112Z,6404.00
2019-04-27T05:20:48.644Z,6580.00
2019-04-27T05:21:49.138Z,6632.00
2019-04-27T05:22:49.066Z,6648.00
2019-04-27T05:23:48.687Z,6740.00
2019-04-27T05:24:49.247Z,6872.00
2019-04-27T05:25:49.074Z,6996.00
2019-04-27T05:26:48.738Z,7032.00
2019-04-27T05:27:49.268Z,7040.00
2019-04-27T05:28:49.163Z,7104.00
2019-04-27T05:29:48.851Z,7140.00
2019-04-27T05:30:48.956Z,7188.00
2019-04-27T05:31:49.005Z,7208.00
2019-04-27T05:32:47.462Z,7196.00
2019-04-27T05:33:49.065Z,7176.00
2019-04-27T05:34:47.428Z,7172.00
2019-04-27T05:35:49.130Z,7124.00
2019-04-27T05:36:48.797Z,7088.00
2019-04-27T05:37:49.082Z,7096.00
2019-04-27T05:38:47.400Z,7092.00
2019-04-27T05:39:48.706Z,7112.00
2019-04-27T05:40:47.350Z,7112.00
2019-04-27T05:41:47.425Z,7152.00
2019-04-27T05:42:48.827Z,7188.00
2019-04-27T05:43:49.032Z,7200.00
2019-04-27T05:44:48.861Z,7204.00
2019-04-27T05:45:48.821Z,7208.00
2019-04-27T05:46:47.287Z,7192.00
2019-04-27T05:47:50.794Z,7152.00
2019-04-27T05:48:48.791Z,7144.00
2019-04-27T05:49:48.553Z,7148.00
2019-04-27T05:50:51.440Z,7156.00
2019-04-27T05:51:48.481Z,7144.00
2019-04-27T05:52:49.501Z,7140.00
2019-04-27T05:53:47.210Z,7160.00
2019-04-27T05:54:48.857Z,7172.00
2019-04-27T05:55:47.188Z,7192.00
2019-04-27T05:56:49.103Z,7204.00
2019-04-27T05:57:48.874Z,7224.00
2019-04-27T05:58:47.158Z,7256.00
2019-04-27T05:59:47.164Z,7268.00
2019-04-27T06:00:47.140Z,7300.00
2019-04-27T06:01:48.999Z,7328.00
2019-04-27T06:02:48.697Z,7344.00
2019-04-27T06:03:47.100Z,7376.00
2019-04-27T06:04:47.111Z,7404.00
2019-04-27T06:05:48.848Z,7424.00
2019-04-27T06:06:47.074Z,7444.00
2019-04-27T06:07:48.791Z,7488.00
2019-04-27T06:08:47.046Z,7520.00
2019-04-27T06:09:47.047Z,7536.00
2019-04-27T06:10:48.828Z,7564.00
2019-04-27T06:11:48.695Z,7624.00
2019-04-27T06:12:48.513Z,7664.00
2019-04-27T06:13:46.997Z,7700.00
2019-04-27T06:14:47.012Z,7740.00
2019-04-27T06:15:46.971Z,7776.00
2019-04-27T06:16:46.950Z,7824.00
2019-04-27T06:17:48.451Z,7872.00
2019-04-27T06:18:46.935Z,7928.00
2019-04-27T06:19:46.959Z,8036.00
2019-04-27T06:20:53.461Z,8424.00
2019-04-27T06:21:46.907Z,9312.00
2019-04-27T06:22:48.776Z,10012.00
2019-04-27T06:23:48.713Z,10728.00
2019-04-27T06:24:46.909Z,10480.00
2019-04-27T06:25:46.873Z,9140.00
2019-04-27T06:26:46.849Z,8616.00
2019-04-27T06:27:46.831Z,8552.00
2019-04-27T06:28:46.824Z,8596.00
2019-04-27T06:29:46.845Z,8620.00
2019-04-27T06:30:46.831Z,8636.00
2019-04-27T06:31:46.800Z,8624.00
2019-04-27T06:32:46.803Z,8624.00
2019-04-27T06:33:46.780Z,8648.00
2019-04-27T06:34:48.819Z,8652.00
2019-04-27T06:35:46.768Z,8660.00
2019-04-27T06:36:48.585Z,8712.00
2019-04-27T06:37:46.737Z,8744.00
2019-04-27T06:38:48.485Z,8788.00
2019-04-27T06:39:46.724Z,8824.00
2019-04-27T06:40:46.705Z,8880.00
2019-04-27T06:41:46.680Z,8928.00
2019-04-27T06:42:48.505Z,8956.00
2019-04-27T06:43:46.666Z,9012.00
2019-04-27T06:44:46.669Z,9044.00
2019-04-27T06:45:46.658Z,9100.00
2019-04-27T06:46:46.633Z,9144.00
2019-04-27T06:47:46.618Z,9160.00
2019-04-27T06:48:47.480Z,9208.00
2019-04-27T06:49:46.606Z,9240.00
2019-04-27T06:50:46.599Z,9288.00
2019-04-27T06:51:46.580Z,9324.00
2019-04-27T06:52:46.570Z,9364.00
2019-04-27T06:53:46.564Z,9420.00
2019-04-27T06:54:46.554Z,9468.00
2019-04-27T06:55:46.560Z,9500.00
2019-04-27T06:56:46.525Z,9528.00
2019-04-27T06:57:46.514Z,9528.00
2019-04-27T06:58:46.498Z,9312.00
2019-04-27T06:59:46.487Z,9180.00
2019-04-27T07:00:46.494Z,9048.00
2019-04-27T07:01:46.469Z,7668.00
2019-04-27T07:02:46.451Z,7192.00
2019-04-27T07:03:46.462Z,6056.00
2019-04-27T07:04:46.436Z,6340.00
2019-04-27T07:05:46.447Z,7316.00
2019-04-27T07:07:58.936Z,8552.00
2019-04-27T07:08:59.611Z,8352.00
2019-04-27T07:09:59.068Z,8408.00
2019-04-27T07:10:58.888Z,8376.00
2019-04-27T07:11:59.244Z,8152.00
2019-04-27T07:12:59.668Z,8516.00
2019-04-27T07:13:59.397Z,8688.00
2019-04-27T07:14:59.278Z,10252.00
2019-04-27T07:15:59.534Z,10664.00
2019-04-27T07:16:59.082Z,10676.00
2019-04-27T07:17:58.640Z,10760.00
2019-04-27T07:18:59.344Z,10848.00
2019-04-27T07:19:59.447Z,10876.00
2019-04-27T07:20:58.684Z,10948.00
2019-04-27T07:21:59.409Z,11000.00
2019-04-27T07:22:59.503Z,11048.00
2019-04-27T07:23:59.347Z,11132.00
2019-04-27T07:24:59.072Z,11148.00
2019-04-27T07:25:59.749Z,11236.00
2019-04-27T07:26:59.585Z,11292.00
2019-04-27T07:27:59.216Z,11340.00
2019-04-27T07:28:59.518Z,11316.00
2019-04-27T07:30:00.770Z,11416.00
2019-04-27T07:30:58.674Z,11484.00
2019-04-27T07:31:59.506Z,11780.00
2019-04-27T07:33:00.130Z,11956.00
2019-04-27T07:33:59.409Z,12100.00
2019-04-27T07:34:58.621Z,12208.00
2019-04-27T07:35:59.091Z,12396.00
2019-04-27T07:36:59.571Z,12612.00
2019-04-27T07:37:58.810Z,12796.00
2019-04-27T07:38:59.625Z,13044.00
2019-04-27T07:39:59.125Z,13224.00
2019-04-27T07:40:58.689Z,13564.00
2019-04-27T07:41:58.571Z,13860.00
2019-04-27T07:42:59.294Z,14176.00
2019-04-27T07:43:58.618Z,14560.00
2019-04-27T07:44:59.419Z,14936.00
2019-04-27T07:45:59.076Z,15276.00
2019-04-27T07:46:59.438Z,15708.00
2019-04-27T07:47:59.154Z,15964.00
2019-04-27T07:48:59.425Z,16284.00
2019-04-27T07:49:59.271Z,16736.00
2019-04-27T07:50:59.072Z,17088.00
2019-04-27T07:51:58.971Z,17568.00
2019-04-27T07:52:58.655Z,17888.00
2019-04-27T07:53:58.899Z,18400.00
2019-04-27T07:54:58.758Z,19616.00
2019-04-27T07:55:59.146Z,20288.00
2019-04-27T07:56:58.774Z,20544.00
2019-04-27T07:57:59.382Z,18336.00
2019-04-27T07:58:59.404Z,21536.00
2019-04-27T07:59:59.472Z,20352.00
2019-04-27T08:00:59.026Z,20032.00
2019-04-27T08:01:59.111Z,20576.00
2019-04-27T08:02:58.614Z,15868.00
2019-04-27T08:03:59.027Z,15216.00
2019-04-27T08:04:57.424Z,16448.00
2019-04-27T08:05:58.818Z,21088.00
2019-04-27T08:06:57.421Z,19840.00
2019-04-27T08:07:57.399Z,15852.00
2019-04-27T08:08:59.189Z,14624.00
2019-04-27T08:10:01.105Z,18304.00
2019-04-27T08:10:57.356Z,14932.00
2019-04-27T08:11:58.672Z,16244.00
2019-04-27T08:12:57.354Z,21152.00
2019-04-27T08:13:58.824Z,17120.00
2019-04-27T08:14:57.323Z,17440.00
2019-04-27T08:15:58.967Z,15252.00
2019-04-27T08:16:58.649Z,14592.00
2019-04-27T08:17:59.042Z,14284.00
2019-04-27T08:18:57.270Z,15476.00
2019-04-27T08:19:57.275Z,15252.00
2019-04-27T08:20:58.944Z,15412.00
2019-04-27T08:21:57.238Z,16044.00
2019-04-27T08:22:57.235Z,16160.00
2019-04-27T08:23:58.626Z,15872.00
2019-04-27T08:24:57.196Z,15028.00
2019-04-27T08:25:58.787Z,14376.00
2019-04-27T08:26:57.184Z,14512.00
2019-04-27T08:27:57.201Z,17024.00
2019-04-27T08:28:58.627Z,15136.00
2019-04-27T08:29:58.739Z,16148.00
2019-04-27T08:30:58.563Z,22016.00
2019-04-27T08:31:58.518Z,22944.00
2019-04-27T08:32:57.128Z,20512.00
2019-04-27T08:33:58.309Z,19712.00
2019-04-27T08:34:59.489Z,16256.00
2019-04-27T08:35:58.947Z,14504.00
2019-04-27T08:36:58.460Z,13496.00
2019-04-27T08:37:57.071Z,12636.00
2019-04-27T08:38:58.746Z,11728.00
2019-04-27T08:39:57.046Z,10956.00
2019-04-27T08:40:57.027Z,10228.00
2019-04-27T08:41:57.021Z,9468.00
2019-04-27T08:42:57.027Z,8868.00
2019-04-27T08:43:58.663Z,8484.00
2019-04-27T08:44:56.982Z,8196.00
2019-04-27T08:45:58.795Z,8212.00
2019-04-27T08:46:56.973Z,8364.00
2019-04-27T08:47:56.956Z,7988.00
2019-04-27T08:48:58.576Z,7480.00
2019-04-27T08:49:56.930Z,6900.00
2019-04-27T08:50:56.912Z,6680.00
2019-04-27T08:52:01.207Z,6872.00
2019-04-27T08:52:56.916Z,7384.00
2019-04-27T08:53:56.893Z,8164.00
2019-04-27T08:54:56.869Z,9268.00
2019-04-27T08:55:56.854Z,9868.00
2019-04-27T08:56:56.849Z,10704.00
2019-04-27T08:57:58.567Z,11116.00
2019-04-27T08:58:56.847Z,11320.00
2019-04-27T08:59:56.823Z,11396.00
2019-04-27T09:00:56.816Z,10964.00
2019-04-27T09:01:58.647Z,10176.00
2019-04-27T09:02:56.781Z,9156.00
2019-04-27T09:03:56.803Z,8216.00
2019-04-27T09:04:56.768Z,7404.00
2019-04-27T09:05:56.751Z,6528.00
2019-04-27T09:06:56.765Z,6000.00
2019-04-27T09:09:05.955Z,4884.00
2019-04-27T09:10:08.575Z,4412.00
2019-04-27T09:11:08.789Z,3976.00
2019-04-27T09:12:06.911Z,3792.00
2019-04-27T09:13:08.739Z,3720.00
2019-04-27T09:14:06.903Z,3756.00
2019-04-27T09:15:06.878Z,3836.00
2019-04-27T09:16:06.863Z,3956.00
2019-04-27T09:17:06.853Z,4144.00
2019-04-27T09:18:06.840Z,4388.00
2019-04-27T09:19:08.703Z,4556.00
2019-04-27T09:20:06.834Z,4576.00
2019-04-27T09:21:06.813Z,4584.00
2019-04-27T09:22:15.245Z,4500.00
2019-04-27T09:23:06.790Z,4396.00
2019-04-27T09:24:06.764Z,4304.00
2019-04-27T09:25:06.783Z,4516.00
2019-04-27T09:26:06.751Z,4972.00
2019-04-27T09:27:06.731Z,5600.00
2019-04-27T09:28:08.642Z,6328.00
2019-04-27T09:29:08.315Z,6836.00
2019-04-27T09:30:08.410Z,7324.00
2019-04-27T09:31:09.243Z,7776.00
2019-04-27T09:32:08.754Z,8056.00
2019-04-27T09:33:06.678Z,8384.00
2019-04-27T09:34:08.108Z,8664.00
2019-04-27T09:35:07.706Z,8844.00
2019-04-27T09:36:06.638Z,8768.00
2019-04-27T09:37:06.631Z,8548.00
2019-04-27T09:38:07.141Z,8260.00
2019-04-27T09:39:08.565Z,8096.00
2019-04-27T09:40:08.153Z,7900.00
2019-04-27T09:41:07.151Z,7688.00
2019-04-27T09:42:06.696Z,7564.00
2019-04-27T09:43:07.542Z,7520.00
2019-04-27T09:44:06.554Z,7532.00
2019-04-27T09:45:06.689Z,7612.00
2019-04-27T09:46:06.540Z,7816.00
2019-04-27T09:47:06.521Z,8108.00
2019-04-27T09:48:06.758Z,8468.00
2019-04-27T09:49:07.432Z,8788.00
2019-04-27T09:50:06.496Z,9108.00
2019-04-27T09:51:06.583Z,9216.00
2019-04-27T09:52:06.463Z,9616.00
2019-04-27T09:53:06.524Z,9660.00
2019-04-27T09:54:06.446Z,9560.00
2019-04-27T09:55:06.672Z,9388.00
2019-04-27T09:56:06.418Z,8728.00
2019-04-27T09:57:07.015Z,8232.00
2019-04-27T09:58:06.383Z,7696.00
2019-04-27T09:59:06.465Z,7340.00
2019-04-27T10:00:06.465Z,7316.00
2019-04-27T10:01:06.714Z,7288.00
2019-04-27T10:02:08.436Z,6940.00
2019-04-27T10:03:06.730Z,6372.00
2019-04-27T10:04:06.330Z,5984.00
2019-04-27T10:05:06.343Z,5188.00
2019-04-27T10:06:06.307Z,4684.00
2019-04-27T10:07:06.327Z,4540.00
2019-04-27T10:08:06.403Z,4680.00
2019-04-27T10:09:06.655Z,4928.00
2019-04-27T10:10:06.538Z,4868.00
2019-04-27T10:11:06.283Z,4964.00
2019-04-27T10:12:07.503Z,5044.00
2019-04-27T10:13:07.039Z,5440.00
2019-04-27T10:14:06.210Z,5924.00
2019-04-27T10:15:06.234Z,5896.00
2019-04-27T10:16:06.202Z,5672.00
2019-04-27T10:17:06.184Z,5312.00
2019-04-27T10:18:06.252Z,4972.00
2019-04-27T10:19:06.156Z,4816.00
2019-04-27T10:20:06.159Z,5044.00
2019-04-27T10:21:06.397Z,5520.00
2019-04-27T10:22:06.186Z,5888.00
2019-04-27T10:23:06.385Z,6024.00
2019-04-27T10:24:06.622Z,5984.00
2019-04-27T10:25:06.085Z,6280.00
2019-04-27T10:26:06.102Z,6552.00
2019-04-27T10:27:07.984Z,6884.00
2019-04-27T10:28:06.752Z,7108.00
2019-04-27T10:29:06.236Z,7184.00
2019-04-27T10:30:06.040Z,7188.00
2019-04-27T10:31:07.037Z,7216.00
2019-04-27T10:32:06.411Z,7160.00
2019-04-27T10:33:08.122Z,7196.00
2019-04-27T10:34:06.100Z,7000.00
2019-04-27T10:35:07.674Z,6800.00
2019-04-27T10:36:06.596Z,6808.00
2019-04-27T10:37:06.190Z,6832.00
2019-04-27T10:38:05.936Z,6868.00
2019-04-27T10:39:05.932Z,6924.00
2019-04-27T10:40:06.269Z,7052.00
2019-04-27T10:41:07.640Z,7296.00
2019-04-27T10:42:06.800Z,7564.00
2019-04-27T10:43:06.377Z,7728.00
2019-04-27T10:44:07.529Z,7888.00
2019-04-27T10:45:06.432Z,8164.00
2019-04-27T10:46:06.654Z,8212.00
2019-04-27T10:47:06.111Z,8272.00
2019-04-27T10:48:05.837Z,8320.00
2019-04-27T10:49:05.963Z,8292.00
2019-04-27T10:50:05.937Z,8224.00
2019-04-27T10:51:07.382Z,8196.00
2019-04-27T10:52:06.021Z,8256.00
2019-04-27T10:53:06.910Z,8520.00
2019-04-27T10:54:05.771Z,8448.00
2019-04-27T10:55:06.067Z,8236.00
2019-04-27T10:56:05.747Z,7964.00
2019-04-27T10:57:06.193Z,7964.00
2019-04-27T10:58:05.714Z,7828.00
2019-04-27T10:59:06.515Z,7776.00
2019-04-27T11:00:06.832Z,7636.00
2019-04-27T11:01:05.708Z,7636.00
2019-04-27T11:02:05.690Z,7440.00
2019-04-27T11:03:06.636Z,7268.00
2019-04-27T11:04:05.938Z,7196.00
2019-04-27T11:05:06.792Z,7224.00
2019-04-27T11:06:05.971Z,7368.00
2019-04-27T11:07:07.177Z,7588.00
2019-04-27T11:08:06.632Z,7872.00
2019-04-27T11:10:26.086Z,8420.00
2019-04-27T11:11:27.788Z,8504.00
2019-04-27T11:12:26.721Z,8464.00
2019-04-27T11:13:26.699Z,8448.00
2019-04-27T11:14:26.679Z,8396.00
2019-04-27T11:15:26.695Z,8380.00
2019-04-27T11:16:26.687Z,8284.00
2019-04-27T11:17:26.817Z,8188.00
2019-04-27T11:18:26.636Z,8028.00
2019-04-27T11:19:26.853Z,7788.00
2019-04-27T11:20:27.794Z,7612.00
2019-04-27T11:21:26.615Z,7468.00
2019-04-27T11:22:26.612Z,7540.00
2019-04-27T11:23:26.586Z,7480.00
2019-04-27T11:24:26.572Z,7348.00
2019-04-27T11:25:26.568Z,7148.00
2019-04-27T11:26:26.567Z,6884.00
2019-04-27T11:27:26.563Z,6600.00
2019-04-27T11:28:26.531Z,6508.00
2019-04-27T11:29:27.672Z,6896.00
2019-04-27T11:30:26.504Z,7028.00
2019-04-27T11:31:26.493Z,7096.00
2019-04-27T11:32:26.512Z,7060.00
2019-04-27T11:33:26.492Z,7088.00
2019-04-27T11:34:26.520Z,7176.00
2019-04-27T11:35:26.465Z,7428.00
2019-04-27T11:36:26.451Z,7664.00
2019-04-27T11:37:26.437Z,7744.00
2019-04-27T11:38:26.685Z,7576.00
2019-04-27T11:39:26.403Z,7640.00
2019-04-27T11:40:26.407Z,8012.00
2019-04-27T11:41:26.431Z,8152.00
2019-04-27T11:42:26.386Z,8148.00
2019-04-27T11:43:26.365Z,8072.00
2019-04-27T11:44:26.347Z,8044.00
2019-04-27T11:45:28.381Z,8128.00
2019-04-27T11:46:26.756Z,8228.00
2019-04-27T11:47:27.465Z,8360.00
2019-04-27T11:48:26.377Z,8392.00
2019-04-27T11:49:26.304Z,8448.00
2019-04-27T11:50:26.285Z,8556.00
2019-04-27T11:51:26.686Z,8972.00
2019-04-27T11:52:26.269Z,9272.00
2019-04-27T11:53:26.382Z,9672.00
2019-04-27T11:54:27.580Z,9892.00
2019-04-27T11:55:27.374Z,10268.00
2019-04-27T11:56:27.442Z,10052.00
2019-04-27T11:57:26.209Z,9504.00
2019-04-27T11:58:26.579Z,9120.00
2019-04-27T11:59:27.119Z,8652.00
2019-04-27T12:00:27.674Z,7976.00
2019-04-27T12:01:27.057Z,7768.00
2019-04-27T12:02:26.147Z,7676.00
2019-04-27T12:03:26.160Z,7760.00
2019-04-27T12:04:26.393Z,7776.00
2019-04-27T12:05:26.198Z,7908.00
2019-04-27T12:06:26.112Z,7904.00
2019-04-27T12:07:26.090Z,8040.00
2019-04-27T12:08:26.500Z,7796.00
2019-04-27T12:09:26.090Z,7156.00
2019-04-27T12:10:26.383Z,6708.00
2019-04-27T12:11:26.182Z,5960.00
2019-04-27T12:12:26.253Z,5412.00
2019-04-27T12:13:26.048Z,5068.00
2019-04-27T12:14:26.019Z,4868.00
2019-04-27T12:15:26.394Z,5200.00
2019-04-27T12:16:26.294Z,5436.00
2019-04-27T12:17:29.039Z,5476.00
2019-04-27T12:18:25.999Z,5592.00
2019-04-27T12:19:26.806Z,5852.00
2019-04-27T12:20:26.072Z,6092.00
2019-04-27T12:21:25.942Z,6264.00
2019-04-27T12:22:25.928Z,6388.00
2019-04-27T12:23:33.692Z,6416.00
2019-04-27T12:24:26.727Z,6440.00
2019-04-27T12:25:25.889Z,6580.00
2019-04-27T12:26:25.989Z,6512.00
2019-04-27T12:27:25.872Z,6036.00
2019-04-27T12:28:27.209Z,5348.00
2019-04-27T12:29:25.856Z,4704.00
2019-04-27T12:30:26.197Z,4216.00
2019-04-27T12:31:25.873Z,3644.00